Time;durP1;ratioP1;P1;durP2;ratioP2;P2;SDS_P1;SDS_P2;PMS_P1;PMS_P2;Temp;Humidity;BMP_temperature;BMP_pressure;BME280_temperature;BME280_humidity;BME280_pressure;Samples;Min_cycle;Max_cycle;Signal;HPM_P1;HPM_P2
2022/01/06 00:01:06;;;;;;;9.15;2.20;;;5.00;84.00;;;;;;6095195;23;92726;-65
2022/01/06 00:03:34;;;;;;;9.43;1.48;;;4.90;83.20;;;;;;6095461;23;92462;-66
2022/01/06 00:06:05;;;;;;;8.57;1.63;;;4.90;84.40;;;;;;6095110;23;92386;-65
2022/01/06 00:08:34;;;;;;;10.63;1.88;;;4.90;84.70;;;;;;6094763;23;94169;-66
2022/01/06 00:11:03;;;;;;;8.50;1.48;;;4.80;84.50;;;;;;6093919;23;95110;-65
2022/01/06 00:13:49;;;;;;;7.60;1.30;;;4.80;84.40;;;;;;6094355;23;107333;-73
2022/01/06 00:24:28;;;;;;;14.65;2.55;;;4.80;85.80;;;;;;6095013;23;93393;-65
2022/01/06 00:26:56;;;;;;;14.43;3.05;;;4.80;86.10;;;;;;6093037;23;92777;-66
2022/01/06 00:29:24;;;;;;;17.00;2.88;;;4.90;86.10;;;;;;6069126;23;91662;-66
2022/01/06 00:31:52;;;;;;;11.65;2.50;;;4.90;85.40;;;;;;6092900;23;92408;-66
2022/01/06 00:34:19;;;;;;;11.73;2.60;;;5.00;85.80;;;;;;6093284;23;92946;-66
2022/01/06 00:36:46;;;;;;;17.90;3.22;;;5.10;85.40;;;;;;6093170;23;94812;-66
2022/01/06 00:39:13;;;;;;;22.25;2.58;;;5.20;85.20;;;;;;6094468;23;99542;-73
2022/01/06 00:41:40;;;;;;;11.30;1.92;;;5.30;84.90;;;;;;6092924;23;92361;-73
2022/01/06 00:44:08;;;;;;;11.18;2.15;;;5.30;84.20;;;;;;6094714;23;94771;-73
2022/01/06 00:46:36;;;;;;;15.65;2.65;;;5.30;83.80;;;;;;6094372;23;92845;-73
2022/01/06 00:49:03;;;;;;;12.00;1.83;;;5.30;83.70;;;;;;6094700;23;92332;-73
2022/01/06 00:51:30;;;;;;;18.70;2.63;;;5.30;83.80;;;;;;6094168;23;92453;-73
2022/01/06 00:53:57;;;;;;;16.17;2.13;;;5.20;83.70;;;;;;6096187;23;92442;-66
2022/01/06 00:56:24;;;;;;;15.20;2.30;;;5.20;83.70;;;;;;6095700;23;92374;-66
2022/01/06 00:58:51;;;;;;;17.70;2.80;;;5.20;84.40;;;;;;6094538;23;92488;-66
2022/01/06 01:01:18;;;;;;;12.38;2.38;;;5.20;83.60;;;;;;6094241;23;100387;-66
2022/01/06 01:03:46;;;;;;;13.10;2.40;;;5.10;83.80;;;;;;6095209;23;93079;-66
2022/01/06 01:06:13;;;;;;;14.13;2.30;;;5.10;83.20;;;;;;6094511;23;92736;-66
2022/01/06 01:08:40;;;;;;;19.70;3.88;;;5.10;83.00;;;;;;6096008;23;92515;-73
2022/01/06 01:11:07;;;;;;;9.00;2.17;;;5.10;83.50;;;;;;6096208;23;92514;-73
2022/01/06 01:13:43;;;;;;;11.57;1.63;;;5.10;83.60;;;;;;6094362;23;92895;-73
2022/01/06 01:16:22;;;;;;;15.20;3.00;;;5.10;83.50;;;;;;6095840;23;94741;-73
2022/01/06 01:18:50;;;;;;;15.85;3.25;;;5.10;83.30;;;;;;6096371;23;91664;-74
2022/01/06 01:21:19;;;;;;;18.30;2.72;;;5.20;83.50;;;;;;6096120;23;92443;-73
2022/01/06 01:23:46;;;;;;;10.02;1.77;;;5.30;83.50;;;;;;6095491;23;92327;-73
2022/01/06 01:26:13;;;;;;;17.77;2.58;;;5.30;83.00;;;;;;6092546;23;94886;-73
2022/01/06 01:28:45;;;;;;;10.95;2.33;;;5.30;83.10;;;;;;6094415;23;92607;-73
2022/01/06 01:33:46;;;;;;;11.02;1.90;;;5.40;82.80;;;;;;6095577;23;93068;-74
2022/01/06 01:36:13;;;;;;;12.30;1.88;;;5.40;82.90;;;;;;6095150;23;113716;-74
2022/01/06 01:38:41;;;;;;;12.57;1.90;;;5.40;82.50;;;;;;6095770;23;92379;-73
2022/01/06 01:41:09;;;;;;;9.05;1.70;;;5.50;82.00;;;;;;6095897;23;92393;-73
2022/01/06 01:43:36;;;;;;;11.60;1.95;;;5.40;81.60;;;;;;6094515;23;93670;-73
2022/01/06 01:46:15;;;;;;;18.48;2.67;;;5.40;81.90;;;;;;6095410;23;92433;-73
2022/01/06 01:48:49;;;;;;;10.93;2.53;;;5.40;81.60;;;;;;6096221;23;92482;-74
2022/01/06 01:51:16;;;;;;;11.35;1.95;;;5.40;81.40;;;;;;6068111;23;96490;-73
2022/01/06 01:53:43;;;;;;;9.98;2.03;;;5.30;81.10;;;;;;6095706;23;92837;-73
2022/01/06 01:56:13;;;;;;;10.10;1.83;;;5.20;81.40;;;;;;6094914;23;94950;-73
2022/01/06 01:58:41;;;;;;;12.43;1.83;;;5.20;81.50;;;;;;6069712;23;92482;-73
2022/01/06 02:01:08;;;;;;;12.23;2.25;;;5.10;81.70;;;;;;6069259;23;96072;-73
2022/01/06 02:03:35;;;;;;;14.68;2.58;;;5.10;81.90;;;;;;6095390;23;92913;-73
2022/01/06 02:06:02;;;;;;;12.50;2.63;;;5.00;82.00;;;;;;6095097;23;103245;-73
2022/01/06 02:08:31;;;;;;;12.85;2.35;;;5.00;82.00;;;;;;6094779;23;91709;-73
2022/01/06 02:10:58;;;;;;;15.45;2.13;;;5.00;82.00;;;;;;6069177;23;92517;-73
2022/01/06 02:13:28;;;;;;;12.07;2.58;;;4.90;82.80;;;;;;6095800;23;92982;-74
2022/01/06 02:16:00;;;;;;;17.02;1.83;;;4.90;82.20;;;;;;6094303;23;95245;-73
2022/01/06 02:18:28;;;;;;;17.35;1.83;;;4.90;82.50;;;;;;6070572;23;92369;-73
2022/01/06 02:20:56;;;;;;;15.68;2.08;;;4.80;82.50;;;;;;6093792;23;92546;-73
2022/01/06 02:23:23;;;;;;;11.50;2.22;;;4.70;82.50;;;;;;6093949;23;94244;-73
2022/01/06 02:25:50;;;;;;;8.00;1.88;;;4.70;82.60;;;;;;6095448;23;92717;-73
2022/01/06 02:28:22;;;;;;;14.18;2.40;;;4.60;82.70;;;;;;6095960;23;92359;-73
2022/01/06 02:30:51;;;;;;;11.02;1.92;;;4.60;82.70;;;;;;6095608;23;92335;-73
2022/01/06 02:33:19;;;;;;;11.25;1.67;;;4.50;82.90;;;;;;6069528;23;93369;-73
2022/01/06 02:35:48;;;;;;;14.35;2.40;;;4.50;83.00;;;;;;6095759;23;92770;-73
2022/01/06 02:38:16;;;;;;;14.27;2.15;;;4.40;82.90;;;;;;6095901;23;92288;-73
2022/01/06 02:40:43;;;;;;;14.80;2.28;;;4.40;82.80;;;;;;6093038;23;94813;-73
2022/01/06 02:43:10;;;;;;;10.43;1.98;;;4.30;82.80;;;;;;6095364;23;95481;-73
2022/01/06 02:45:37;;;;;;;8.98;1.73;;;4.30;82.50;;;;;;6095559;23;93823;-73
2022/01/06 02:48:08;;;;;;;9.52;2.00;;;4.20;82.70;;;;;;6095348;23;92302;-73
2022/01/06 02:50:44;;;;;;;12.65;1.88;;;4.20;82.70;;;;;;6095752;23;92379;-73
2022/01/06 02:53:12;;;;;;;10.52;1.98;;;4.30;82.50;;;;;;6095261;23;93048;-73
2022/01/06 02:55:47;;;;;;;11.75;1.77;;;4.30;82.70;;;;;;6095537;23;92771;-73
2022/01/06 02:58:34;;;;;;;10.43;1.85;;;4.30;82.60;;;;;;6096351;23;91831;-73
2022/01/06 03:01:00;;;;;;;8.48;1.70;;;4.30;82.60;;;;;;6093711;23;92388;-73
2022/01/06 03:03:28;;;;;;;12.48;1.75;;;4.30;82.70;;;;;;6093648;23;94388;-73
2022/01/06 03:05:54;;;;;;;10.45;2.20;;;4.30;82.50;;;;;;6067247;23;98021;-73
2022/01/06 03:08:23;;;;;;;17.13;2.60;;;4.30;82.60;;;;;;6095903;23;92910;-73
2022/01/06 03:10:50;;;;;;;11.98;2.10;;;4.30;82.70;;;;;;6095640;23;92384;-73
2022/01/06 03:13:17;;;;;;;8.60;2.10;;;4.40;83.10;;;;;;6068301;23;94133;-73
2022/01/06 03:15:44;;;;;;;6.07;1.45;;;4.40;82.50;;;;;;6093222;23;94081;-73
2022/01/06 03:18:11;;;;;;;5.68;1.45;;;4.40;82.00;;;;;;6095421;23;92388;-73
2022/01/06 03:20:38;;;;;;;4.53;1.10;;;4.50;81.90;;;;;;6093820;23;92426;-73
2022/01/06 03:23:05;;;;;;;3.88;1.20;;;4.50;81.70;;;;;;6069109;23;93326;-73
2022/01/06 03:25:32;;;;;;;3.70;1.20;;;4.40;81.20;;;;;;6095539;23;92760;-73
2022/01/06 03:27:59;;;;;;;7.85;0.90;;;4.40;81.50;;;;;;6095394;23;92410;-73
2022/01/06 03:30:26;;;;;;;4.65;1.27;;;4.40;81.80;;;;;;6092362;23;94833;-73
2022/01/06 03:32:53;;;;;;;6.18;1.13;;;4.30;82.00;;;;;;6068944;23;94364;-73
2022/01/06 03:35:22;;;;;;;5.28;1.10;;;4.30;82.40;;;;;;6069031;23;96075;-73
2022/01/06 03:37:50;;;;;;;5.22;1.50;;;4.20;82.60;;;;;;6095610;23;92444;-73
2022/01/06 03:40:17;;;;;;;8.30;1.35;;;4.20;82.80;;;;;;6094529;23;106082;-73
2022/01/06 03:42:44;;;;;;;3.78;0.90;;;4.10;83.60;;;;;;6095206;23;93133;-73
2022/01/06 03:45:17;;;;;;;4.97;0.95;;;4.10;83.30;;;;;;6069032;23;92718;-73
2022/01/06 03:47:45;;;;;;;4.47;2.43;;;4.00;83.50;;;;;;6096168;23;91724;-73
2022/01/06 03:50:13;;;;;;;5.07;1.05;;;3.90;83.70;;;;;;6094990;23;92414;-73
2022/01/06 03:52:40;;;;;;;5.20;1.10;;;3.90;83.90;;;;;;6095285;23;93050;-73
2022/01/06 03:55:11;;;;;;;3.20;0.77;;;3.80;84.00;;;;;;6093225;23;94887;-73
2022/01/06 03:57:38;;;;;;;2.53;0.80;;;3.70;84.10;;;;;;6095318;23;92320;-73
2022/01/06 04:00:09;;;;;;;8.40;1.63;;;3.70;84.20;;;;;;6094751;23;94365;-73
2022/01/06 04:02:39;;;;;;;2.97;1.20;;;3.60;84.30;;;;;;6095107;23;92688;-73
2022/01/06 04:05:07;;;;;;;6.43;1.30;;;3.50;84.30;;;;;;6094494;23;92749;-73
2022/01/06 04:07:35;;;;;;;3.15;0.88;;;3.50;84.40;;;;;;6095005;23;92309;-73
2022/01/06 04:10:03;;;;;;;3.08;1.00;;;3.40;84.20;;;;;;6095313;23;92917;-73
2022/01/06 04:12:33;;;;;;;4.32;1.17;;;3.40;84.10;;;;;;6095502;23;92280;-73
2022/01/06 04:15:02;;;;;;;3.85;1.17;;;3.30;84.10;;;;;;6095046;23;92400;-73
2022/01/06 04:17:29;;;;;;;5.88;1.10;;;3.20;84.40;;;;;;6094501;23;104430;-73
2022/01/06 04:19:56;;;;;;;7.13;1.13;;;3.20;84.60;;;;;;6091941;23;94836;-73
2022/01/06 04:22:23;;;;;;;7.00;1.40;;;3.10;84.60;;;;;;6092663;23;100503;-73
2022/01/06 04:24:50;;;;;;;6.72;1.33;;;3.10;84.60;;;;;;6095097;23;92787;-73
2022/01/06 04:27:17;;;;;;;3.65;1.13;;;3.00;84.70;;;;;;6096110;23;92355;-73
2022/01/06 04:29:44;;;;;;;4.65;1.10;;;3.00;84.80;;;;;;6094925;23;92487;-73
2022/01/06 04:32:11;;;;;;;6.03;1.02;;;2.90;84.80;;;;;;6095929;23;92935;-73
2022/01/06 04:34:38;;;;;;;6.38;1.88;;;2.90;85.00;;;;;;6096140;23;92888;-73
2022/01/06 04:37:06;;;;;;;8.85;1.63;;;2.90;85.10;;;;;;6097004;23;91590;-73
2022/01/06 04:39:32;;;;;;;8.90;1.48;;;2.90;85.40;;;;;;6094616;23;92355;-73
2022/01/06 04:41:59;;;;;;;7.57;1.70;;;2.80;85.50;;;;;;6070269;23;92998;-73
2022/01/06 04:44:26;;;;;;;7.38;2.53;;;2.80;85.50;;;;;;6094546;23;95362;-73
2022/01/06 04:46:53;;;;;;;5.22;3.10;;;2.80;85.70;;;;;;6094246;23;96813;-73
2022/01/06 04:49:22;;;;;;;5.50;1.58;;;2.80;85.70;;;;;;6095886;23;92515;-73
2022/01/06 04:51:49;;;;;;;7.55;1.17;;;2.70;85.80;;;;;;6096282;23;92929;-73
2022/01/06 04:54:16;;;;;;;5.88;1.15;;;2.70;85.80;;;;;;6095720;23;92714;-73
2022/01/06 04:56:43;;;;;;;5.18;1.02;;;2.70;85.70;;;;;;6096074;23;92434;-73
2022/01/06 04:59:10;;;;;;;8.00;2.72;;;2.70;85.60;;;;;;6069710;23;92490;-73
2022/01/06 05:01:38;;;;;;;5.47;1.50;;;2.60;85.80;;;;;;6096573;23;92419;-73
2022/01/06 05:04:05;;;;;;;7.63;1.30;;;2.60;85.80;;;;;;6094560;23;92577;-73
2022/01/06 05:06:33;;;;;;;5.88;1.40;;;2.60;85.80;;;;;;6095965;23;92384;-73
2022/01/06 05:09:00;;;;;;;5.25;1.52;;;2.50;85.80;;;;;;6094743;23;94814;-73
2022/01/06 05:11:27;;;;;;;6.55;1.70;;;2.50;85.80;;;;;;6095675;23;93033;-73
2022/01/06 05:13:54;;;;;;;8.38;1.52;;;2.50;85.90;;;;;;6095892;23;92613;-73
2022/01/06 05:16:21;;;;;;;5.85;1.20;;;2.50;85.90;;;;;;6095285;23;109597;-73
2022/01/06 05:18:48;;;;;;;6.90;1.27;;;2.50;85.80;;;;;;6096167;23;92387;-73
2022/01/06 05:21:15;;;;;;;10.20;1.98;;;2.40;85.70;;;;;;6095679;23;93071;-73
2022/01/06 05:23:42;;;;;;;11.98;2.25;;;2.40;85.80;;;;;;6095965;23;92798;-73
2022/01/06 05:26:09;;;;;;;10.80;1.73;;;2.40;85.80;;;;;;6095160;23;92123;-73
2022/01/06 05:28:36;;;;;;;11.48;1.75;;;2.40;85.90;;;;;;6095853;23;92445;-73
2022/01/06 05:31:03;;;;;;;8.68;1.80;;;2.30;85.90;;;;;;6095953;23;92894;-73
2022/01/06 05:33:31;;;;;;;10.02;1.77;;;2.40;86.10;;;;;;6094018;23;94690;-73
2022/01/06 05:35:58;;;;;;;14.82;2.15;;;2.30;86.00;;;;;;6096161;23;92408;-73
2022/01/06 05:38:25;;;;;;;11.27;1.70;;;2.30;86.20;;;;;;6068810;23;92732;-73
2022/01/06 05:40:52;;;;;;;11.18;2.20;;;2.30;86.20;;;;;;6095188;23;109019;-73
2022/01/06 05:43:20;;;;;;;7.10;2.22;;;2.30;86.30;;;;;;6094128;23;92745;-73
2022/01/06 05:45:51;;;;;;;7.65;2.03;;;2.30;86.30;;;;;;6096102;23;92296;-73
2022/01/06 05:48:18;;;;;;;9.25;1.80;;;2.30;86.40;;;;;;6095831;23;92407;-73
2022/01/06 05:50:48;;;;;;;11.13;2.20;;;2.20;86.30;;;;;;6096272;23;92282;-73
2022/01/06 05:53:16;;;;;;;11.68;1.90;;;2.30;86.40;;;;;;6095507;23;92431;-73
2022/01/06 05:55:43;;;;;;;12.32;2.38;;;2.20;86.40;;;;;;6095925;23;92370;-73
2022/01/06 05:58:10;;;;;;;8.85;2.17;;;2.20;86.50;;;;;;6094259;23;94791;-73
2022/01/06 06:00:38;;;;;;;8.55;2.05;;;2.20;86.60;;;;;;6095286;23;93883;-73
2022/01/06 06:03:05;;;;;;;11.27;1.90;;;2.20;86.40;;;;;;6094097;23;93814;-73
2022/01/06 06:05:32;;;;;;;12.65;2.58;;;2.20;86.30;;;;;;6095523;23;92404;-66
2022/01/06 06:07:59;;;;;;;9.60;1.63;;;2.20;86.30;;;;;;6094454;23;92998;-66
2022/01/06 06:10:26;;;;;;;13.52;2.15;;;2.20;86.20;;;;;;6069080;23;95316;-66
2022/01/06 06:12:55;;;;;;;17.77;3.67;;;2.20;86.30;;;;;;6095804;23;92868;-66
2022/01/06 06:15:22;;;;;;;9.73;1.92;;;2.20;86.20;;;;;;6096014;23;91654;-65
2022/01/06 06:17:49;;;;;;;12.15;2.38;;;2.20;85.90;;;;;;6095928;23;92486;-66
2022/01/06 06:20:16;;;;;;;12.75;2.08;;;2.20;85.60;;;;;;6095193;23;105860;-66
2022/01/06 06:22:43;;;;;;;10.52;2.78;;;2.20;85.70;;;;;;6094070;23;94722;-66
2022/01/06 06:25:11;;;;;;;22.35;7.13;;;2.20;85.70;;;;;;6096112;23;92438;-66
2022/01/06 06:27:38;;;;;;;26.42;8.15;;;2.20;85.70;;;;;;6093819;23;92380;-66
2022/01/06 06:30:05;;;;;;;26.92;7.90;;;2.30;85.70;;;;;;6094166;23;93038;-66
2022/01/06 06:32:33;;;;;;;29.25;6.68;;;2.20;85.60;;;;;;6069717;23;93432;-65
2022/01/06 06:35:01;;;;;;;32.03;7.20;;;2.20;85.40;;;;;;6095836;23;92444;-65
2022/01/06 06:37:28;;;;;;;24.85;8.07;;;2.20;85.20;;;;;;6095411;23;92384;-65
2022/01/06 06:39:57;;;;;;;16.42;2.83;;;2.20;85.10;;;;;;6095397;23;108909;-65
2022/01/06 06:42:25;;;;;;;17.92;4.72;;;2.20;85.10;;;;;;6095695;23;92336;-66
2022/01/06 06:44:52;;;;;;;24.40;4.82;;;2.30;85.40;;;;;;6095899;23;92429;-66
2022/01/06 06:47:19;;;;;;;15.10;3.83;;;2.30;85.50;;;;;;6092604;23;95299;-66
2022/01/06 06:49:46;;;;;;;17.77;4.03;;;2.30;85.40;;;;;;6093680;23;92971;-65
2022/01/06 06:52:13;;;;;;;18.10;4.25;;;2.30;85.50;;;;;;6095579;23;93691;-66
2022/01/06 06:54:40;;;;;;;18.48;3.67;;;2.30;85.20;;;;;;6095373;23;92400;-66
2022/01/06 06:57:07;;;;;;;20.00;3.88;;;2.30;85.20;;;;;;6095332;23;93038;-65
2022/01/06 06:59:35;;;;;;;15.55;3.35;;;2.20;85.00;;;;;;6095253;23;93236;-65
2022/01/06 07:02:02;;;;;;;13.57;3.15;;;2.20;85.10;;;;;;6095115;23;102940;-65
2022/01/06 07:04:29;;;;;;;13.80;3.00;;;2.20;85.10;;;;;;6095952;23;91551;-65
2022/01/06 07:07:16;;;;;;;15.93;3.33;;;2.20;85.10;;;;;;6095915;23;92767;-66
2022/01/06 07:09:43;;;;;;;13.38;3.20;;;2.20;85.30;;;;;;6095121;23;93245;-65
2022/01/06 07:12:10;;;;;;;12.95;2.78;;;2.20;85.40;;;;;;6093967;23;94784;-65
2022/01/06 07:14:37;;;;;;;15.88;2.70;;;2.20;85.40;;;;;;6094699;23;102065;-66
2022/01/06 07:17:04;;;;;;;13.27;3.30;;;2.20;85.40;;;;;;6095554;23;93156;-66
2022/01/06 07:19:31;;;;;;;16.52;3.78;;;2.20;85.30;;;;;;6095115;23;94841;-66
2022/01/06 07:21:58;;;;;;;15.55;2.90;;;2.20;85.30;;;;;;6095309;23;97562;-66
2022/01/06 07:24:25;;;;;;;8.45;3.22;;;2.20;85.40;;;;;;6095794;23;92843;-65
2022/01/06 07:26:52;;;;;;;16.85;3.30;;;2.20;85.50;;;;;;6095407;23;92381;-66
2022/01/06 07:29:19;;;;;;;15.95;3.20;;;2.20;85.20;;;;;;6069506;23;93296;-65
2022/01/06 07:31:46;;;;;;;13.23;2.58;;;2.10;85.40;;;;;;6095255;23;92397;-66
2022/01/06 07:34:13;;;;;;;11.35;2.60;;;2.10;85.40;;;;;;6095564;23;92366;-66
2022/01/06 07:36:40;;;;;;;15.95;3.70;;;2.10;85.30;;;;;;6093816;23;94802;-66
2022/01/06 07:39:07;;;;;;;14.27;2.83;;;2.10;85.40;;;;;;6095404;23;93052;-65
2022/01/06 07:41:34;;;;;;;12.82;2.67;;;2.10;85.10;;;;;;6094397;23;107678;-66
2022/01/06 07:44:05;;;;;;;10.02;2.67;;;2.10;84.80;;;;;;6095606;23;92361;-66
2022/01/06 07:46:37;;;;;;;12.63;2.63;;;2.00;84.70;;;;;;6095619;23;92707;-66
2022/01/06 07:49:04;;;;;;;15.82;2.80;;;2.00;84.70;;;;;;6069351;23;96942;-65
2022/01/06 07:51:32;;;;;;;14.77;2.55;;;2.00;84.70;;;;;;6095150;23;92728;-66
2022/01/06 07:53:59;;;;;;;17.17;3.05;;;1.90;84.80;;;;;;6094012;23;91643;-66
2022/01/06 07:56:26;;;;;;;16.45;3.15;;;1.90;84.80;;;;;;6117206;23;92483;-65
2022/01/06 07:58:54;;;;;;;13.43;2.95;;;1.90;84.80;;;;;;6094573;23;99120;-66
2022/01/06 08:01:21;;;;;;;14.93;2.70;;;1.90;85.00;;;;;;6092961;23;94880;-65
2022/01/06 08:03:49;;;;;;;10.35;2.42;;;1.90;85.10;;;;;;6094718;23;92426;-65
2022/01/06 08:06:17;;;;;;;9.40;2.40;;;1.90;85.10;;;;;;6095358;23;93142;-65
2022/01/06 08:08:44;;;;;;;19.35;2.63;;;1.90;84.80;;;;;;6094857;23;93052;-65
2022/01/06 08:11:12;;;;;;;14.55;3.28;;;1.90;84.80;;;;;;6095062;23;92820;-65
2022/01/06 08:13:40;;;;;;;12.48;2.92;;;2.00;84.80;;;;;;6094923;23;92313;-65
2022/01/06 08:16:07;;;;;;;12.30;3.28;;;2.00;84.70;;;;;;6094946;23;92785;-65
2022/01/06 08:18:34;;;;;;;10.82;3.08;;;2.00;84.70;;;;;;6095450;23;92238;-65
2022/01/06 08:21:03;;;;;;;15.93;3.92;;;2.00;84.70;;;;;;6094479;23;92349;-66
2022/01/06 08:23:30;;;;;;;12.55;3.38;;;2.10;84.70;;;;;;6095074;23;92383;-66
2022/01/06 08:25:57;;;;;;;10.73;2.90;;;2.10;84.70;;;;;;6093048;23;94829;-66
2022/01/06 08:28:25;;;;;;;16.17;3.25;;;2.20;84.80;;;;;;6068759;23;93069;-65
2022/01/06 08:30:52;;;;;;;11.88;2.72;;;2.10;84.90;;;;;;6094749;23;92943;-65
2022/01/06 08:33:19;;;;;;;10.55;2.85;;;2.20;84.70;;;;;;6095048;23;92419;-65
2022/01/06 08:35:46;;;;;;;14.70;3.17;;;2.30;84.50;;;;;;6094600;23;92440;-65
2022/01/06 08:38:15;;;;;;;10.13;2.65;;;2.30;84.30;;;;;;6092114;23;94210;-65
2022/01/06 08:40:42;;;;;;;16.15;2.55;;;2.40;84.30;;;;;;6094306;23;92797;-66
2022/01/06 08:43:09;;;;;;;15.25;3.13;;;2.40;84.20;;;;;;6045160;23;95246;-66
2022/01/06 08:45:37;;;;;;;16.67;4.03;;;2.40;84.00;;;;;;6094957;23;92397;-66
2022/01/06 08:48:04;;;;;;;13.20;3.05;;;2.50;83.70;;;;;;6094357;23;92999;-65
2022/01/06 08:50:31;;;;;;;12.98;2.58;;;2.50;83.60;;;;;;6093251;23;94709;-67
2022/01/06 08:52:58;;;;;;;17.60;3.90;;;2.60;83.50;;;;;;6094886;23;93104;-66
2022/01/06 08:55:26;;;;;;;17.88;5.55;;;2.60;83.40;;;;;;6094686;23;92440;-65
2022/01/06 08:57:54;;;;;;;11.77;3.22;;;2.70;83.40;;;;;;6094088;23;92999;-66
2022/01/06 09:00:21;;;;;;;15.73;3.35;;;2.70;83.30;;;;;;6094630;23;92818;-66
2022/01/06 09:02:48;;;;;;;8.45;3.08;;;2.80;83.10;;;;;;6094487;23;92321;-66
2022/01/06 09:05:16;;;;;;;14.65;3.30;;;2.80;83.00;;;;;;6094723;23;92417;-66
2022/01/06 09:07:43;;;;;;;13.65;2.97;;;2.90;83.00;;;;;;6095011;23;92356;-66
2022/01/06 09:10:10;;;;;;;14.40;3.08;;;2.90;82.90;;;;;;6092807;23;92460;-66
2022/01/06 09:12:38;;;;;;;6.85;2.63;;;3.00;82.90;;;;;;6095014;23;92309;-66
2022/01/06 09:15:07;;;;;;;17.88;2.95;;;3.00;83.00;;;;;;6094421;23;95319;-66
2022/01/06 09:17:36;;;;;;;14.95;4.13;;;3.10;82.70;;;;;;6095181;23;110554;-66
2022/01/06 09:20:07;;;;;;;10.73;3.25;;;3.20;82.40;;;;;;6095718;23;92865;-65
2022/01/06 09:22:38;;;;;;;13.25;4.20;;;3.20;82.20;;;;;;6096175;23;92554;-66
2022/01/06 09:25:05;;;;;;;14.63;3.58;;;3.30;82.00;;;;;;6069411;23;92468;-66
2022/01/06 09:27:33;;;;;;;12.13;2.70;;;3.40;81.90;;;;;;6095544;23;93246;-66
2022/01/06 09:30:00;;;;;;;7.40;3.00;;;3.50;81.90;;;;;;6095602;23;93495;-66
2022/01/06 09:32:26;;;;;;;16.83;3.85;;;3.50;81.80;;;;;;6096584;23;91579;-66
2022/01/06 09:34:54;;;;;;;11.18;4.05;;;3.60;81.90;;;;;;6095597;23;92393;-67
2022/01/06 09:37:22;;;;;;;19.50;6.75;;;3.60;81.40;;;;;;6095744;23;93001;-66
2022/01/06 09:39:50;;;;;;;13.45;4.68;;;3.70;81.00;;;;;;6094295;23;94841;-66
2022/01/06 09:42:19;;;;;;;11.57;3.65;;;3.70;80.90;;;;;;6094100;23;92376;-66
2022/01/06 09:44:50;;;;;;;20.33;3.17;;;3.80;80.30;;;;;;6094427;23;92504;-66
2022/01/06 09:47:19;;;;;;;15.85;3.25;;;3.80;80.50;;;;;;6069316;23;93077;-66
2022/01/06 09:50:06;;;;;;;20.20;4.43;;;3.90;80.50;;;;;;6095596;23;92630;-66
2022/01/06 09:52:34;;;;;;;15.57;4.10;;;4.00;80.40;;;;;;6095723;23;92421;-66
2022/01/06 09:55:04;;;;;;;13.98;3.20;;;4.00;80.40;;;;;;6095661;23;92408;-66
2022/01/06 09:57:31;;;;;;;13.93;3.30;;;4.10;80.40;;;;;;6094315;23;92354;-67
2022/01/06 09:59:58;;;;;;;16.65;2.90;;;4.20;80.60;;;;;;6095491;23;92467;-66
2022/01/06 10:02:36;;;;;;;20.50;3.33;;;4.20;80.60;;;;;;6095975;23;92443;-65
2022/01/06 10:05:04;;;;;;;15.10;2.70;;;4.30;80.50;;;;;;6094245;23;94687;-65
2022/01/06 10:07:39;;;;;;;14.40;2.75;;;4.40;80.30;;;;;;6094063;23;92953;-66
2022/01/06 10:10:08;;;;;;;12.18;2.88;;;4.40;80.00;;;;;;6095289;23;92754;-67
2022/01/06 10:12:38;;;;;;;10.98;2.75;;;4.40;80.10;;;;;;6069918;23;92471;-67
2022/01/06 10:15:19;;;;;;;16.73;3.00;;;4.40;80.10;;;;;;6069416;23;92663;-66
2022/01/06 10:17:47;;;;;;;19.17;3.08;;;4.50;80.30;;;;;;6095775;23;93076;-67
2022/01/06 10:20:20;;;;;;;19.80;3.60;;;4.50;80.30;;;;;;6093634;23;93927;-66
2022/01/06 10:22:50;;;;;;;16.00;3.80;;;4.50;80.20;;;;;;6096110;23;91567;-66
2022/01/06 10:25:19;;;;;;;24.55;3.63;;;4.50;80.30;;;;;;6093733;23;92547;-66
2022/01/06 10:27:46;;;;;;;14.90;3.13;;;4.60;80.20;;;;;;6118588;23;94078;-66
2022/01/06 10:30:14;;;;;;;18.48;3.20;;;4.60;80.00;;;;;;6067605;23;95168;-66
2022/01/06 10:32:42;;;;;;;20.23;5.13;;;4.70;80.00;;;;;;6095631;23;92440;-66
2022/01/06 10:35:11;;;;;;;16.27;3.47;;;4.80;79.70;;;;;;6095319;23;92432;-66
2022/01/06 10:37:44;;;;;;;22.48;3.88;;;4.80;79.40;;;;;;6095629;23;92995;-66
2022/01/06 10:40:16;;;;;;;19.30;3.33;;;4.90;79.20;;;;;;6095150;23;92924;-66
2022/01/06 10:42:47;;;;;;;12.90;2.60;;;4.90;79.00;;;;;;6095924;23;92473;-66
2022/01/06 10:45:19;;;;;;;17.92;3.80;;;5.00;78.40;;;;;;6095552;23;93021;-66
2022/01/06 10:47:49;;;;;;;9.27;2.55;;;5.10;77.90;;;;;;6095916;23;92310;-66
2022/01/06 10:50:50;;;;;;;15.88;2.40;;;5.10;77.40;;;;;;6095292;23;92423;-66
2022/01/06 10:53:17;;;;;;;16.33;2.72;;;5.20;77.20;;;;;;6070641;23;92439;-66
2022/01/06 10:55:46;;;;;;;17.30;3.05;;;5.20;76.80;;;;;;6093806;23;94775;-66
2022/01/06 10:58:25;;;;;;;18.27;3.58;;;5.30;76.90;;;;;;6094795;23;93014;-66
2022/01/06 11:00:58;;;;;;;120.53;13.40;;;5.40;76.90;;;;;;6095491;23;92869;-66
2022/01/06 11:03:33;;;;;;;14.98;4.03;;;5.40;76.40;;;;;;6094867;23;92453;-66
2022/01/06 11:06:02;;;;;;;13.60;2.47;;;5.50;76.10;;;;;;6095650;23;92372;-66
2022/01/06 11:08:32;;;;;;;12.77;2.50;;;5.50;76.00;;;;;;6095328;23;93018;-66
2022/01/06 11:13:37;;;;;;;14.90;6.20;;;5.60;77.50;;;;;;6071907;23;91649;-66
2022/01/06 11:16:05;;;;;;;13.75;3.83;;;5.70;77.50;;;;;;6095317;23;92392;-66
2022/01/06 11:18:34;;;;;;;20.02;4.15;;;5.70;77.30;;;;;;6068901;23;96581;-68
2022/01/06 11:21:07;;;;;;;17.17;3.65;;;5.80;77.30;;;;;;6093029;23;112893;-65
2022/01/06 11:23:34;;;;;;;10.00;3.08;;;5.80;77.20;;;;;;6095405;23;92448;-65
2022/01/06 11:26:06;;;;;;;14.02;3.20;;;5.80;77.80;;;;;;6093895;23;92430;-67
2022/01/06 11:28:34;;;;;;;17.25;4.25;;;5.90;77.20;;;;;;6095434;23;92992;-67
2022/01/06 11:31:22;;;;;;;12.88;3.03;;;5.90;77.40;;;;;;6095350;23;92782;-67
2022/01/06 11:33:52;;;;;;;10.68;3.47;;;6.00;77.10;;;;;;6095564;23;92287;-67
2022/01/06 11:36:19;;;;;;;14.80;3.05;;;6.00;77.60;;;;;;6094444;23;92879;-67
2022/01/06 11:38:48;;;;;;;12.45;3.17;;;6.10;76.80;;;;;;6095583;23;99139;-67
2022/01/06 11:41:15;;;;;;;13.55;2.88;;;6.10;77.00;;;;;;6094988;23;92326;-67
2022/01/06 11:43:45;;;;;;;50.38;7.28;;;6.20;77.00;;;;;;6095578;23;92572;-66
2022/01/06 11:46:13;;;;;;;17.77;3.92;;;6.20;76.90;;;;;;6094076;23;95190;-66
2022/01/06 11:49:07;;;;;;;41.50;6.22;;;6.30;76.80;;;;;;6094998;23;94031;-66
2022/01/06 11:51:37;;;;;;;13.60;2.55;;;6.40;76.90;;;;;;6090226;23;92949;-67
2022/01/06 11:54:16;;;;;;;17.55;3.28;;;6.40;77.30;;;;;;6093653;23;92462;-66
2022/01/06 11:56:52;;;;;;;13.40;3.78;;;6.50;77.20;;;;;;6068806;23;92470;-67
2022/01/06 11:59:33;;;;;;;15.15;3.72;;;6.50;76.80;;;;;;6095047;23;92981;-67
2022/01/06 12:02:02;;;;;;;24.40;4.45;;;6.60;76.70;;;;;;6095177;23;93768;-67
2022/01/06 12:04:29;;;;;;;16.38;3.60;;;6.60;77.00;;;;;;6095377;23;91583;-67
2022/01/06 12:07:09;;;;;;;12.85;2.70;;;6.70;76.40;;;;;;6118323;23;92499;-66
2022/01/06 12:09:36;;;;;;;15.95;3.38;;;6.80;76.50;;;;;;6094928;23;93198;-66
2022/01/06 12:12:11;;;;;;;16.50;3.00;;;6.80;76.20;;;;;;6093540;23;94727;-66
2022/01/06 12:14:38;;;;;;;13.20;2.60;;;6.90;75.90;;;;;;6095197;23;92377;-68
2022/01/06 12:17:09;;;;;;;14.75;2.58;;;6.90;75.40;;;;;;6095012;23;92393;-68
2022/01/06 12:19:37;;;;;;;19.35;3.92;;;7.00;74.90;;;;;;6068563;23;92925;-67
2022/01/06 12:22:10;;;;;;;13.18;2.83;;;7.10;75.00;;;;;;6094821;23;92859;-68
2022/01/06 12:24:37;;;;;;;12.48;2.55;;;7.20;75.10;;;;;;6094940;23;92366;-67
2022/01/06 12:27:05;;;;;;;17.48;2.53;;;7.20;75.50;;;;;;6077759;23;92909;-68
2022/01/06 12:29:38;;;;;;;12.30;2.88;;;7.20;75.40;;;;;;6052525;23;92402;-69
2022/01/06 12:32:10;;;;;;;72.57;8.70;;;7.30;75.80;;;;;;6055003;23;93764;-66
2022/01/06 12:34:39;;;;;;;11.98;2.72;;;7.30;75.00;;;;;;6054894;23;92871;-66
2022/01/06 12:37:07;;;;;;;17.08;2.97;;;7.40;74.80;;;;;;6052839;23;94890;-65
2022/01/06 12:39:34;;;;;;;13.95;2.50;;;7.40;74.60;;;;;;6051869;23;94327;-65
2022/01/06 12:42:04;;;;;;;12.15;2.67;;;7.50;74.40;;;;;;6053477;23;93294;-69
2022/01/06 12:44:32;;;;;;;12.85;2.40;;;7.50;74.40;;;;;;6025373;23;94431;-67
2022/01/06 12:47:04;;;;;;;13.02;2.35;;;7.60;74.50;;;;;;6029523;23;93391;-75
2022/01/06 12:49:31;;;;;;;14.90;2.70;;;7.60;74.20;;;;;;6054297;23;93073;-75
2022/01/06 12:51:58;;;;;;;12.90;2.40;;;7.60;74.30;;;;;;6053409;23;103691;-72
2022/01/06 12:54:25;;;;;;;15.07;3.35;;;7.70;73.70;;;;;;6029325;23;93102;-75
2022/01/06 12:57:01;;;;;;;10.20;3.03;;;7.70;73.50;;;;;;6027394;23;92909;-76
2022/01/06 12:59:34;;;;;;;13.98;2.67;;;7.80;73.60;;;;;;6052029;23;93097;-74
2022/01/06 13:02:02;;;;;;;12.13;2.55;;;7.80;73.90;;;;;;6058707;23;95440;-74
2022/01/06 13:04:32;;;;;;;14.63;2.83;;;7.80;73.40;;;;;;6095960;23;92383;-74
2022/01/06 13:07:01;;;;;;;13.52;2.30;;;7.90;73.70;;;;;;6096198;23;92421;-74
2022/01/06 13:09:32;;;;;;;10.68;2.88;;;7.90;73.40;;;;;;6045707;23;93113;-74